createdAt,value
2023-11-05T00:01:04.767Z,8.50
2023-11-05T00:03:51.099Z,8.50
2023-11-05T00:06:19.224Z,8.60
2023-11-05T00:08:47.308Z,8.60
2023-11-05T00:11:15.390Z,8.56
2023-11-05T00:13:43.457Z,8.60
2023-11-05T00:16:11.493Z,8.60
2023-11-05T00:18:39.542Z,8.52
2023-11-05T00:21:07.724Z,8.42
2023-11-05T00:23:35.833Z,8.38
2023-11-05T00:26:03.985Z,8.30
2023-11-05T00:28:32.084Z,8.22
2023-11-05T00:31:00.274Z,8.24
2023-11-05T00:33:28.698Z,8.20
2023-11-05T00:35:57.485Z,8.20
2023-11-05T00:38:25.853Z,8.20
2023-11-05T00:40:53.919Z,8.20
2023-11-05T00:43:22.559Z,8.20
2023-11-05T00:45:50.885Z,8.10
2023-11-05T00:48:19.109Z,8.00
2023-11-05T00:50:47.138Z,8.00
2023-11-05T00:53:15.137Z,7.90
2023-11-05T00:55:43.166Z,7.80
2023-11-05T00:58:11.380Z,7.80
2023-11-05T01:00:40.195Z,7.82
2023-11-05T01:03:08.769Z,7.84
2023-11-05T01:05:37.623Z,7.90
2023-11-05T01:08:05.884Z,7.90
2023-11-05T01:10:34.006Z,7.90
2023-11-05T01:13:02.162Z,7.90
2023-11-05T01:15:31.962Z,8.00
2023-11-05T01:18:00.160Z,8.00
2023-11-05T01:20:29.190Z,8.00
2023-11-05T01:22:57.752Z,8.00
2023-11-05T01:25:26.459Z,8.00
2023-11-05T01:27:54.994Z,8.02
2023-11-05T01:30:23.164Z,8.10
2023-11-05T01:32:51.523Z,8.12
2023-11-05T01:35:19.791Z,8.20
2023-11-05T01:37:48.018Z,8.20
2023-11-05T01:40:16.182Z,8.22
2023-11-05T01:42:44.213Z,8.20
2023-11-05T01:45:12.232Z,8.20
2023-11-05T01:47:40.503Z,8.20
2023-11-05T01:50:09.553Z,8.20
2023-11-05T01:52:37.621Z,8.14
2023-11-05T01:55:07.724Z,8.10
2023-11-05T01:57:36.076Z,8.00
2023-11-05T02:00:06.600Z,7.90
2023-11-05T02:02:41.977Z,7.90
2023-11-05T02:05:10.786Z,7.80
2023-11-05T02:07:39.245Z,7.80
2023-11-05T02:10:08.402Z,7.80
2023-11-05T02:12:36.958Z,7.70
2023-11-05T02:15:07.354Z,7.70
2023-11-05T02:17:35.640Z,7.70
2023-11-05T02:20:07.778Z,7.60
2023-11-05T02:22:36.005Z,7.52
2023-11-05T02:25:04.253Z,7.50
2023-11-05T02:27:32.451Z,7.50
2023-11-05T02:30:00.547Z,7.46
2023-11-05T02:32:28.743Z,7.50
2023-11-05T02:34:56.888Z,7.48
2023-11-05T02:37:25.160Z,7.40
2023-11-05T02:39:53.244Z,7.40
2023-11-05T02:42:21.455Z,7.50
2023-11-05T02:44:51.054Z,7.50
2023-11-05T02:47:19.094Z,7.40
2023-11-05T02:49:47.296Z,7.50
2023-11-05T02:52:15.464Z,7.40
2023-11-05T02:54:43.888Z,7.40
2023-11-05T02:57:11.971Z,7.36
2023-11-05T02:59:40.022Z,7.38
2023-11-05T03:02:08.097Z,7.40
2023-11-05T03:04:36.192Z,7.40
2023-11-05T03:07:04.614Z,7.40
2023-11-05T03:09:32.633Z,7.40
2023-11-05T03:12:00.670Z,7.40
2023-11-05T03:14:28.845Z,7.40
2023-11-05T03:16:58.157Z,7.34
2023-11-05T03:19:26.865Z,7.32
2023-11-05T03:21:54.886Z,7.32
2023-11-05T03:24:23.652Z,7.30
2023-11-05T03:26:51.829Z,7.20
2023-11-05T03:29:20.176Z,7.20
2023-11-05T03:31:50.454Z,7.10
2023-11-05T03:34:19.562Z,7.14
2023-11-05T03:36:47.857Z,7.18
2023-11-05T03:39:16.148Z,7.20
2023-11-05T03:41:44.462Z,7.20
2023-11-05T03:44:12.556Z,7.20
2023-11-05T03:46:42.214Z,7.20
2023-11-05T03:49:10.962Z,7.18
2023-11-05T03:51:39.272Z,7.16
2023-11-05T03:54:07.596Z,7.20
2023-11-05T03:56:36.054Z,7.22
2023-11-05T03:59:04.097Z,7.30
2023-11-05T04:01:32.144Z,7.30
2023-11-05T04:04:01.192Z,7.30
2023-11-05T04:06:29.239Z,7.30
2023-11-05T04:08:57.408Z,7.26
2023-11-05T04:11:25.976Z,7.20
2023-11-05T04:13:53.986Z,7.20
2023-11-05T04:16:22.247Z,7.20
2023-11-05T04:18:51.081Z,7.14
2023-11-05T04:21:20.425Z,7.10
2023-11-05T04:23:48.496Z,7.10
2023-11-05T04:26:16.571Z,6.98
2023-11-05T04:28:44.676Z,6.90
2023-11-05T04:31:12.874Z,6.80
2023-11-05T04:33:41.155Z,6.66
2023-11-05T04:36:09.988Z,6.60
2023-11-05T04:38:38.837Z,6.60
2023-11-05T04:41:07.072Z,6.60
2023-11-05T04:43:35.201Z,6.60
2023-11-05T04:46:03.525Z,6.64
2023-11-05T04:48:31.941Z,6.70
2023-11-05T04:51:00.220Z,6.76
2023-11-05T04:53:29.233Z,6.74
2023-11-05T04:55:57.302Z,6.74
2023-11-05T04:58:25.633Z,6.70
2023-11-05T05:00:53.891Z,6.60
2023-11-05T05:03:22.131Z,6.50
2023-11-05T05:05:50.454Z,6.50
2023-11-05T05:08:18.505Z,6.50
2023-11-05T05:10:46.807Z,6.56
2023-11-05T05:13:15.972Z,6.50
2023-11-05T05:15:44.316Z,6.50
2023-11-05T05:18:12.381Z,6.50
2023-11-05T05:20:40.514Z,6.50
2023-11-05T05:23:08.581Z,6.60
2023-11-05T05:25:36.829Z,6.60
2023-11-05T05:28:05.172Z,6.60
2023-11-05T05:30:33.335Z,6.60
2023-11-05T05:33:01.553Z,6.60
2023-11-05T05:35:29.722Z,6.70
2023-11-05T05:37:57.864Z,6.88
2023-11-05T05:40:25.964Z,7.16
2023-11-05T05:42:54.285Z,7.20
2023-11-05T05:45:22.369Z,7.20
2023-11-05T05:47:50.520Z,7.10
2023-11-05T05:50:18.687Z,7.00
2023-11-05T05:52:46.678Z,7.00
2023-11-05T05:55:16.826Z,6.98
2023-11-05T05:57:45.222Z,6.90
2023-11-05T06:00:13.572Z,6.90
2023-11-05T06:02:41.658Z,6.70
2023-11-05T06:05:09.804Z,6.66
2023-11-05T06:07:38.183Z,6.68
2023-11-05T06:10:08.613Z,6.62
2023-11-05T06:12:36.818Z,6.74
2023-11-05T06:15:11.408Z,6.80
2023-11-05T06:17:41.468Z,6.80
2023-11-05T06:20:10.280Z,6.90
2023-11-05T06:22:39.673Z,7.10
2023-11-05T06:25:11.655Z,7.30
2023-11-05T06:27:40.977Z,7.40
2023-11-05T06:30:10.221Z,7.60
2023-11-05T06:32:40.014Z,7.60
2023-11-05T06:35:08.576Z,7.70
2023-11-05T06:37:36.680Z,7.80
2023-11-05T06:40:06.061Z,7.90
2023-11-05T06:42:34.082Z,8.00
2023-11-05T06:45:02.119Z,8.10
2023-11-05T06:47:30.427Z,8.20
2023-11-05T06:49:58.669Z,8.30
2023-11-05T06:52:28.038Z,8.40
2023-11-05T06:54:57.760Z,8.50
2023-11-05T06:57:25.954Z,8.60
2023-11-05T07:00:12.044Z,8.70
2023-11-05T07:02:40.059Z,8.80
2023-11-05T07:05:08.774Z,8.90
2023-11-05T07:07:37.184Z,8.92
2023-11-05T07:10:06.130Z,9.00
2023-11-05T07:12:34.183Z,9.10
2023-11-05T07:15:05.102Z,9.20
2023-11-05T07:17:34.387Z,9.32
2023-11-05T07:20:02.982Z,9.42
2023-11-05T07:22:31.222Z,9.50
2023-11-05T07:24:59.457Z,9.66
2023-11-05T07:27:27.521Z,9.74
2023-11-05T07:29:55.676Z,9.90
2023-11-05T07:32:23.759Z,10.00
2023-11-05T07:34:52.917Z,10.10
2023-11-05T07:37:21.140Z,10.30
2023-11-05T07:39:49.286Z,10.40
2023-11-05T07:42:17.388Z,10.50
2023-11-05T07:44:45.445Z,10.60
2023-11-05T07:47:13.714Z,10.70
2023-11-05T07:49:41.812Z,10.80
2023-11-05T07:52:10.164Z,10.90
2023-11-05T07:54:38.453Z,11.10
2023-11-05T07:57:07.146Z,11.16
2023-11-05T07:59:35.554Z,11.20
2023-11-05T08:02:03.936Z,11.30
2023-11-05T08:04:32.165Z,11.40
2023-11-05T08:07:00.416Z,11.50
2023-11-05T08:09:28.554Z,11.60
2023-11-05T08:11:56.635Z,11.70
2023-11-05T08:14:24.714Z,11.80
2023-11-05T08:16:52.839Z,12.00
2023-11-05T08:19:20.990Z,12.10
2023-11-05T08:21:49.123Z,12.10
2023-11-05T08:24:17.504Z,12.14
2023-11-05T08:26:45.667Z,12.18
2023-11-05T08:29:15.854Z,12.20
2023-11-05T08:31:46.681Z,12.20
2023-11-05T08:34:15.529Z,12.20
2023-11-05T08:36:43.697Z,12.30
2023-11-05T08:39:12.569Z,12.30
2023-11-05T08:41:43.567Z,12.40
2023-11-05T08:44:11.731Z,12.40
2023-11-05T08:46:40.078Z,12.34
2023-11-05T08:49:09.493Z,12.30
2023-11-05T08:51:38.329Z,12.20
2023-11-05T08:54:06.803Z,12.20
2023-11-05T08:56:34.825Z,12.10
2023-11-05T08:59:03.496Z,12.02
2023-11-05T09:01:32.083Z,11.96
2023-11-05T09:04:00.480Z,11.90
2023-11-05T09:06:31.363Z,11.84
2023-11-05T09:09:00.067Z,11.80
2023-11-05T09:11:28.244Z,11.74
2023-11-05T09:13:56.273Z,11.70
2023-11-05T09:16:24.838Z,11.60
2023-11-05T09:18:53.015Z,11.60
2023-11-05T09:21:21.667Z,11.50
2023-11-05T09:23:52.461Z,11.40
2023-11-05T09:26:22.948Z,11.40
2023-11-05T09:28:51.213Z,11.40
2023-11-05T09:31:19.339Z,11.40
2023-11-05T09:33:47.457Z,11.30
2023-11-05T09:36:15.592Z,11.30
2023-11-05T09:38:43.696Z,11.30
2023-11-05T09:41:11.848Z,11.24
2023-11-05T09:43:40.710Z,11.20
2023-11-05T09:46:08.867Z,11.20
2023-11-05T09:48:36.991Z,11.30
2023-11-05T09:51:05.173Z,11.30
2023-11-05T09:53:33.240Z,11.40
2023-11-05T09:56:01.369Z,11.50
2023-11-05T09:58:30.764Z,11.70
2023-11-05T10:00:58.809Z,11.80
2023-11-05T10:03:27.471Z,11.90
2023-11-05T10:05:57.204Z,12.00
2023-11-05T10:08:25.445Z,12.10
2023-11-05T10:10:58.137Z,12.10
2023-11-05T10:13:29.444Z,12.16
2023-11-05T10:16:01.237Z,12.20
2023-11-05T10:18:29.828Z,12.20
2023-11-05T10:20:59.990Z,12.20
2023-11-05T10:23:31.307Z,12.20
2023-11-05T10:25:59.380Z,12.18
2023-11-05T10:28:29.071Z,12.20
2023-11-05T10:30:59.229Z,12.20
2023-11-05T10:33:33.095Z,12.20
2023-11-05T10:36:02.082Z,12.20
2023-11-05T10:38:32.232Z,12.30
2023-11-05T10:41:01.034Z,12.30
2023-11-05T10:43:35.973Z,12.40
2023-11-05T10:47:05.286Z,12.50
2023-11-05T10:49:45.214Z,12.60
2023-11-05T10:52:17.458Z,12.70
2023-11-05T10:54:48.700Z,12.70
2023-11-05T10:57:43.152Z,12.80
2023-11-05T11:00:17.341Z,12.80
2023-11-05T11:02:53.800Z,13.00
2023-11-05T11:05:43.256Z,13.10
2023-11-05T11:08:17.157Z,13.40
2023-11-05T11:10:50.114Z,13.52
2023-11-05T11:13:31.245Z,13.78
2023-11-05T11:16:02.754Z,13.90
2023-11-05T11:18:32.926Z,14.10
2023-11-05T11:21:02.469Z,14.16
2023-11-05T11:23:37.197Z,14.18
2023-11-05T11:26:06.807Z,14.10
2023-11-05T11:28:35.212Z,14.00
2023-11-05T11:31:03.520Z,14.00
2023-11-05T11:34:28.185Z,14.10
2023-11-05T11:37:10.308Z,14.30
2023-11-05T11:39:38.595Z,14.50
2023-11-05T11:42:06.867Z,14.60
2023-11-05T11:44:35.123Z,14.90
2023-11-05T11:47:03.950Z,15.30
2023-11-05T11:49:32.421Z,15.60
2023-11-05T11:52:04.081Z,15.70
2023-11-05T11:54:34.690Z,15.80
2023-11-05T11:57:02.808Z,15.84
2023-11-05T11:59:33.787Z,15.94
2023-11-05T12:02:06.440Z,16.10
2023-11-05T12:04:34.685Z,16.10
2023-11-05T12:07:06.658Z,16.20
2023-11-05T12:09:38.344Z,16.30
2023-11-05T12:12:06.938Z,16.32
2023-11-05T12:14:34.989Z,16.30
2023-11-05T12:17:03.331Z,16.28
2023-11-05T12:19:32.851Z,16.20
2023-11-05T12:22:01.268Z,16.10
2023-11-05T12:24:29.598Z,16.08
2023-11-05T12:26:59.370Z,16.00
2023-11-05T12:29:30.699Z,15.90
2023-11-05T12:31:58.991Z,15.88
2023-11-05T12:34:27.394Z,15.82
2023-11-05T12:36:55.781Z,15.90
2023-11-05T12:39:26.608Z,15.80
2023-11-05T12:41:55.380Z,15.80
2023-11-05T12:44:28.690Z,15.90
2023-11-05T12:47:02.787Z,15.90
2023-11-05T12:49:34.491Z,15.90
2023-11-05T12:52:02.491Z,16.00
2023-11-05T12:54:30.527Z,16.00
2023-11-05T12:56:58.789Z,16.20
2023-11-05T12:59:27.203Z,16.38
2023-11-05T13:02:02.906Z,16.50
2023-11-05T13:04:35.856Z,16.70
2023-11-05T13:07:05.282Z,16.80
2023-11-05T13:09:36.412Z,16.84
2023-11-05T13:12:06.521Z,16.90
2023-11-05T13:14:34.833Z,16.80
2023-11-05T13:17:07.448Z,16.76
2023-11-05T13:19:36.004Z,16.70
2023-11-05T13:22:11.650Z,16.60
2023-11-05T13:24:45.741Z,16.42
2023-11-05T13:27:14.133Z,16.38
2023-11-05T13:29:43.866Z,16.30
2023-11-05T13:32:13.755Z,16.20
2023-11-05T13:34:41.846Z,16.10
2023-11-05T13:37:10.671Z,16.02
2023-11-05T13:39:40.284Z,16.00
2023-11-05T13:42:10.606Z,15.98
2023-11-05T13:44:40.915Z,15.90
2023-11-05T13:47:09.091Z,15.82
2023-11-05T13:49:37.569Z,15.78
2023-11-05T13:52:05.875Z,15.70
2023-11-05T13:54:34.659Z,15.68
2023-11-05T13:57:19.139Z,15.70
2023-11-05T13:59:59.464Z,15.60
2023-11-05T14:02:27.708Z,15.60
2023-11-05T14:04:56.187Z,15.50
2023-11-05T14:07:24.417Z,15.50
2023-11-05T14:09:52.495Z,15.50
2023-11-05T14:12:20.806Z,15.44
2023-11-05T14:14:48.831Z,15.40
2023-11-05T14:17:17.012Z,15.30
2023-11-05T14:19:45.148Z,15.22
2023-11-05T14:22:13.349Z,15.20
2023-11-05T14:24:41.637Z,15.20
2023-11-05T14:27:13.979Z,15.20
2023-11-05T14:29:42.300Z,15.20
2023-11-05T14:32:10.514Z,15.20
2023-11-05T14:34:38.639Z,15.20
2023-11-05T14:37:07.111Z,15.12
2023-11-05T14:39:35.251Z,15.10
2023-11-05T14:42:04.251Z,15.02
2023-11-05T14:44:32.746Z,15.10
2023-11-05T14:47:00.958Z,15.10
2023-11-05T14:49:30.894Z,15.20
2023-11-05T14:51:59.313Z,15.40
2023-11-05T14:54:28.121Z,15.50
2023-11-05T14:56:56.234Z,15.56
2023-11-05T14:59:24.547Z,15.70
2023-11-05T15:01:53.318Z,15.80
2023-11-05T15:04:24.094Z,15.80
2023-11-05T15:06:52.331Z,15.80
2023-11-05T15:09:21.775Z,15.72
2023-11-05T15:11:50.165Z,15.80
2023-11-05T15:14:20.293Z,15.78
2023-11-05T15:16:48.490Z,15.70
2023-11-05T15:19:18.130Z,15.70
2023-11-05T15:21:46.405Z,15.70
2023-11-05T15:24:14.995Z,15.60
2023-11-05T15:26:43.491Z,15.54
2023-11-05T15:29:12.376Z,15.54
2023-11-05T15:31:44.988Z,15.60
2023-11-05T15:34:15.383Z,15.50
2023-11-05T15:36:43.647Z,15.52
2023-11-05T15:39:11.994Z,15.52
2023-11-05T15:41:40.118Z,15.56
2023-11-05T15:44:08.326Z,15.52
2023-11-05T15:46:36.529Z,15.60
2023-11-05T15:49:04.995Z,15.50
2023-11-05T15:51:37.569Z,15.46
2023-11-05T15:54:05.839Z,15.44
2023-11-05T15:56:36.178Z,15.40
2023-11-05T15:59:04.632Z,15.40
2023-11-05T16:01:32.949Z,15.34
2023-11-05T16:04:01.167Z,15.30
2023-11-05T16:06:30.191Z,15.20
2023-11-05T16:09:03.894Z,15.10
2023-11-05T16:11:32.565Z,15.08
2023-11-05T16:14:01.126Z,15.00
2023-11-05T16:16:29.287Z,14.90
2023-11-05T16:18:57.374Z,14.84
2023-11-05T16:21:25.539Z,14.90
2023-11-05T16:23:53.816Z,14.68
2023-11-05T16:26:22.381Z,14.60
2023-11-05T16:28:51.076Z,14.56
2023-11-05T16:31:29.532Z,14.50
2023-11-05T16:33:57.773Z,14.40
2023-11-05T16:36:26.284Z,14.40
2023-11-05T16:38:59.803Z,14.40
2023-11-05T16:41:28.836Z,14.30
2023-11-05T16:43:57.465Z,14.30
2023-11-05T16:46:30.882Z,14.20
2023-11-05T16:49:31.370Z,14.20
2023-11-05T16:52:16.533Z,14.20
2023-11-05T16:54:45.786Z,14.20
2023-11-05T16:57:13.823Z,14.20
2023-11-05T16:59:43.866Z,14.10
2023-11-05T17:02:12.126Z,14.00
2023-11-05T17:04:47.260Z,14.00
2023-11-05T17:07:16.809Z,14.00
2023-11-05T17:09:44.953Z,14.00
2023-11-05T17:12:13.154Z,14.00
2023-11-05T17:14:41.872Z,14.00
2023-11-05T17:17:10.492Z,14.10
2023-11-05T17:19:39.031Z,14.06
2023-11-05T17:22:07.080Z,14.00
2023-11-05T17:24:52.700Z,13.90
2023-11-05T17:27:29.491Z,13.80
2023-11-05T17:30:01.738Z,13.70
2023-11-05T17:32:38.717Z,13.70
2023-11-05T17:35:10.349Z,13.70
2023-11-05T17:37:38.504Z,13.78
2023-11-05T17:40:15.065Z,13.80
2023-11-05T17:42:44.651Z,14.00
2023-11-05T17:45:27.005Z,14.10
2023-11-05T17:48:01.755Z,14.20
2023-11-05T17:50:29.861Z,14.34
2023-11-05T17:52:58.121Z,14.40
2023-11-05T17:55:27.406Z,14.40
2023-11-05T17:57:57.657Z,14.50
2023-11-05T18:00:30.235Z,14.50
2023-11-05T18:03:05.048Z,14.50
2023-11-05T18:09:12.767Z,14.26
2023-11-05T18:11:45.899Z,14.14
2023-11-05T18:14:15.492Z,14.00
2023-11-05T18:16:43.787Z,13.90
2023-11-05T18:19:11.943Z,13.76
2023-11-05T18:21:40.279Z,13.58
2023-11-05T18:24:21.463Z,13.34
2023-11-05T18:26:49.464Z,13.20
2023-11-05T18:29:17.471Z,13.10
2023-11-05T18:31:45.841Z,13.00
2023-11-05T18:34:15.575Z,12.84
2023-11-05T18:36:46.139Z,12.70
2023-11-05T18:39:19.740Z,12.50
2023-11-05T18:41:50.767Z,12.40
2023-11-05T18:44:18.932Z,12.30
2023-11-05T18:46:47.176Z,12.30
2023-11-05T18:49:28.143Z,12.20
2023-11-05T18:52:19.227Z,12.10
2023-11-05T18:54:47.308Z,12.10
2023-11-05T18:57:15.369Z,12.10
2023-11-05T18:59:44.579Z,12.10
2023-11-05T19:02:12.929Z,12.20
2023-11-05T19:04:43.943Z,12.30
2023-11-05T19:07:12.373Z,12.40
2023-11-05T19:10:02.881Z,12.50
2023-11-05T19:12:36.177Z,12.40
2023-11-05T19:15:05.620Z,12.40
2023-11-05T19:17:34.079Z,12.28
2023-11-05T19:20:06.398Z,12.14
2023-11-05T19:22:34.627Z,12.00
2023-11-05T19:25:12.801Z,11.90
2023-11-05T19:27:41.286Z,11.80
2023-11-05T19:30:11.344Z,11.60
2023-11-05T19:32:43.762Z,11.40
2023-11-05T19:35:17.112Z,11.30
2023-11-05T19:37:45.759Z,11.20
2023-11-05T19:40:16.998Z,11.10
2023-11-05T19:42:46.429Z,10.96
2023-11-05T19:45:15.879Z,10.90
2023-11-05T19:47:44.185Z,10.78
2023-11-05T19:50:16.364Z,10.70
2023-11-05T19:52:44.787Z,10.60
2023-11-05T19:55:12.917Z,10.50
2023-11-05T19:57:45.661Z,10.50
2023-11-05T20:00:16.491Z,10.40
2023-11-05T20:02:45.221Z,10.30
2023-11-05T20:05:13.329Z,10.26
2023-11-05T20:07:41.457Z,10.20
2023-11-05T20:10:10.274Z,10.10
2023-11-05T20:12:39.565Z,10.10
2023-11-05T20:15:19.571Z,10.10
2023-11-05T20:17:50.229Z,10.00
2023-11-05T20:20:18.832Z,10.00
2023-11-05T20:22:53.050Z,9.92
2023-11-05T20:25:25.499Z,9.90
2023-11-05T20:27:59.212Z,9.90
2023-11-05T20:30:27.262Z,9.90
2023-11-05T20:32:56.180Z,9.90
2023-11-05T20:35:24.249Z,9.90
2023-11-05T20:37:53.093Z,9.88
2023-11-05T20:40:28.467Z,9.90
2023-11-05T20:43:06.781Z,9.88
2023-11-05T20:45:37.810Z,9.80
2023-11-05T20:48:10.222Z,9.80
2023-11-05T20:50:40.207Z,9.78
2023-11-05T20:53:15.592Z,9.80
2023-11-05T20:55:45.522Z,9.72
2023-11-05T20:58:19.378Z,9.70
2023-11-05T21:00:48.202Z,9.70
2023-11-05T21:03:16.493Z,9.70
2023-11-05T21:05:52.018Z,9.70
2023-11-05T21:08:20.129Z,9.70
2023-11-05T21:10:55.027Z,9.60
2023-11-05T21:13:26.807Z,9.52
2023-11-05T21:15:55.047Z,9.42
2023-11-05T21:18:23.299Z,9.32
2023-11-05T21:20:53.012Z,9.20
2023-11-05T21:23:21.114Z,9.10
2023-11-05T21:25:49.207Z,9.00
2023-11-05T21:28:17.303Z,9.00
2023-11-05T21:30:45.481Z,9.00
2023-11-05T21:33:15.803Z,8.90
2023-11-05T21:35:43.977Z,8.90
2023-11-05T21:38:12.110Z,8.90
2023-11-05T21:40:40.479Z,8.80
2023-11-05T21:43:08.571Z,8.80
2023-11-05T21:45:36.629Z,8.80
2023-11-05T21:48:05.845Z,8.76
2023-11-05T21:50:36.523Z,8.70
2023-11-05T21:53:05.569Z,8.70
2023-11-05T21:55:33.637Z,8.66
2023-11-05T21:58:01.819Z,8.60
2023-11-05T22:00:29.905Z,8.60
2023-11-05T22:02:57.923Z,8.70
2023-11-05T22:05:26.193Z,8.64
2023-11-05T22:07:54.716Z,8.70
2023-11-05T22:10:22.701Z,8.68
2023-11-05T22:12:50.651Z,8.66
2023-11-05T22:15:18.985Z,8.60
2023-11-05T22:17:47.271Z,8.60
2023-11-05T22:20:15.335Z,8.50
2023-11-05T22:22:43.518Z,8.50
2023-11-05T22:25:11.702Z,8.40
2023-11-05T22:27:40.324Z,8.40
2023-11-05T22:30:08.839Z,8.40
2023-11-05T22:32:38.142Z,8.40
2023-11-05T22:35:06.760Z,8.40
2023-11-05T22:37:35.018Z,8.40
2023-11-05T22:40:05.339Z,8.40
2023-11-05T22:42:33.453Z,8.40
2023-11-05T22:45:01.659Z,8.30
2023-11-05T22:47:30.037Z,8.30
2023-11-05T22:49:58.745Z,8.30
2023-11-05T22:52:26.854Z,8.30
2023-11-05T22:54:54.902Z,8.30
2023-11-05T22:57:22.973Z,8.30
2023-11-05T22:59:50.987Z,8.30
2023-11-05T23:02:19.086Z,8.36
2023-11-05T23:04:47.220Z,8.40
2023-11-05T23:07:17.019Z,8.50
2023-11-05T23:09:46.168Z,8.54
2023-11-05T23:12:14.344Z,8.60
2023-11-05T23:14:42.348Z,8.70
2023-11-05T23:17:11.745Z,8.76
2023-11-05T23:19:40.020Z,8.80
2023-11-05T23:22:08.863Z,8.80
2023-11-05T23:24:36.940Z,8.90
2023-11-05T23:27:05.353Z,8.90
2023-11-05T23:29:33.517Z,9.00
2023-11-05T23:32:01.671Z,9.00
2023-11-05T23:34:29.837Z,9.00
2023-11-05T23:36:59.680Z,8.96
2023-11-05T23:39:28.222Z,8.90
2023-11-05T23:41:59.568Z,8.90
2023-11-05T23:44:28.348Z,8.80
2023-11-05T23:46:57.156Z,8.90
2023-11-05T23:49:25.308Z,8.88
2023-11-05T23:51:53.426Z,8.90
2023-11-05T23:54:21.549Z,9.00
2023-11-05T23:56:50.170Z,9.00
2023-11-05T23:59:19.132Z,9.10
